Sutherlin, Oregon
Current Conditions -  °F | °C
As of 7:53 AM on Monday 26 Jan 2015 (Local Time) from KRBG Reporting Station
Moderate Fog Moderate Fog  
Wind Chill: 44°   Ceiling: 200
Heat Index: 44°   Visibility: 0.25mi
Dew Point: 43°   Wind: 0mph
Humidity: 96%   Direction: NA
Pressure: 30.02"   Gusts: NA
Location:  43.39°N, 123.31°W
Report Text: KRBG 261553Z AUTO 00000KT 1/4SM FG VV002 07/06 A3002 RMK AO2 SLP169 T00670061
Loading
Personal Weather Stations






























Interactive Weather Map New forecast layout! Learn more

10-Day Weather Forecast

Advertisements
Track Severe Weather on mobile